createdAt,value
2019-06-01T00:06:25.000Z,47.278
2019-06-01T00:16:25.000Z,47.375
2019-06-01T00:26:28.000Z,47.482
2019-06-01T00:36:25.000Z,47.545
2019-06-01T00:46:25.000Z,47.664
2019-06-01T00:56:25.000Z,47.714
2019-06-01T01:06:25.000Z,47.778
2019-06-01T01:16:25.000Z,47.906
2019-06-01T01:26:25.000Z,47.916
2019-06-01T01:36:27.000Z,48.02
2019-06-01T01:46:25.000Z,48.041
2019-06-01T01:56:25.000Z,48.193
2019-06-01T02:06:25.000Z,48.247
2019-06-01T02:16:25.000Z,48.384
2019-06-01T02:26:25.000Z,48.425
2019-06-01T02:36:25.000Z,48.479
2019-06-01T02:46:25.000Z,48.595
2019-06-01T02:56:25.000Z,48.583
2019-06-01T03:06:25.000Z,48.645
2019-06-01T03:16:29.000Z,48.816
2019-06-01T03:26:25.000Z,48.814
2019-06-01T03:36:25.000Z,48.973
2019-06-01T03:46:26.000Z,48.972
2019-06-01T03:56:25.000Z,49.014
2019-06-01T04:06:25.000Z,48.992
2019-06-01T04:16:29.000Z,49.066
2019-06-01T04:26:26.000Z,49.096
2019-06-01T04:36:25.000Z,49.138
2019-06-01T04:46:29.000Z,49.052
2019-06-01T04:56:25.000Z,49.064
2019-06-01T05:06:25.000Z,49.16
2019-06-01T05:16:25.000Z,49.041
2019-06-01T05:26:25.000Z,49.096
2019-06-01T05:36:25.000Z,48.971
2019-06-01T05:46:26.000Z,48.911
2019-06-01T05:56:26.000Z,48.775
2019-06-01T06:06:26.000Z,48.534
2019-06-01T06:16:28.000Z,48.441
2019-06-01T06:26:26.000Z,48.403
2019-06-01T06:36:26.000Z,48.409
2019-06-01T06:46:26.000Z,48.435
2019-06-01T06:56:26.000Z,48.452
2019-06-01T07:06:26.000Z,48.552
2019-06-01T07:16:26.000Z,48.44
2019-06-01T07:26:26.000Z,48.315
2019-06-01T07:36:26.000Z,48.201
2019-06-01T07:46:26.000Z,47.928
2019-06-01T07:56:26.000Z,47.718
2019-06-01T08:06:26.000Z,47.544
2019-06-01T08:16:26.000Z,47.627
2019-06-01T08:26:26.000Z,47.601
2019-06-01T08:46:26.000Z,47.489
2019-06-01T08:56:26.000Z,47.472
2019-06-01T09:06:26.000Z,47.548
2019-06-01T09:16:26.000Z,47.337
2019-06-01T09:26:26.000Z,47.256
2019-06-01T09:36:26.000Z,47.235
2019-06-01T09:46:26.000Z,47.231
2019-06-01T09:56:26.000Z,46.884
2019-06-01T10:06:26.000Z,46.78
2019-06-01T10:16:27.000Z,46.872
2019-06-01T10:26:26.000Z,46.702
2019-06-01T10:36:26.000Z,46.687
2019-06-01T10:46:30.000Z,46.515
2019-06-01T10:56:26.000Z,46.049
2019-06-01T11:06:27.000Z,45.711
2019-06-01T11:16:26.000Z,44.509
2019-06-01T11:26:27.000Z,43.683
2019-06-01T11:36:26.000Z,42.769
2019-06-01T11:46:28.000Z,41.391
2019-06-01T11:56:26.000Z,40.814
2019-06-01T12:06:26.000Z,40.877
2019-06-01T12:16:26.000Z,40.359
2019-06-01T12:26:27.000Z,39.231
2019-06-01T12:36:26.000Z,39.321
2019-06-01T12:46:26.000Z,39.293
2019-06-01T12:56:27.000Z,38.633
2019-06-01T13:06:26.000Z,38.619
2019-06-01T13:16:26.000Z,39.088
2019-06-01T13:26:26.000Z,38.266
2019-06-01T13:36:26.000Z,39.185
2019-06-01T13:46:26.000Z,39.262
2019-06-01T13:56:26.000Z,39.574
2019-06-01T14:06:28.000Z,39.368
2019-06-01T14:26:27.000Z,38.239
2019-06-01T14:36:27.000Z,39.656
2019-06-01T14:46:27.000Z,39.228
2019-06-01T15:06:27.000Z,39.317
2019-06-01T15:16:27.000Z,39.56
2019-06-01T15:26:27.000Z,38.673
2019-06-01T15:36:27.000Z,38.833
2019-06-01T15:46:27.000Z,39.287
2019-06-01T15:56:29.000Z,38.766
2019-06-01T16:06:27.000Z,38.214
2019-06-01T16:16:29.000Z,39.539
2019-06-01T16:26:27.000Z,40.148
2019-06-01T16:36:27.000Z,40.423
2019-06-01T16:46:27.000Z,40.235
2019-06-01T16:56:31.000Z,39.779
2019-06-01T17:06:27.000Z,39.67
2019-06-01T17:16:27.000Z,39.684
2019-06-01T17:26:29.000Z,39.21
2019-06-01T17:36:27.000Z,38.583
2019-06-01T17:46:27.000Z,38.944
2019-06-01T17:56:27.000Z,39.253
2019-06-01T18:06:29.000Z,39.263
2019-06-01T18:16:27.000Z,39.583
2019-06-01T18:26:27.000Z,39.304
2019-06-01T18:36:27.000Z,39.514
2019-06-01T18:46:27.000Z,39.811
2019-06-01T18:56:27.000Z,40.085
2019-06-01T19:06:27.000Z,40.316
2019-06-01T19:16:27.000Z,40.677
2019-06-01T19:26:27.000Z,40.806
2019-06-01T19:36:27.000Z,40.978
2019-06-01T19:46:28.000Z,41.096
2019-06-01T19:56:27.000Z,41.136
2019-06-01T20:06:27.000Z,41.252
2019-06-01T20:16:27.000Z,41.281
2019-06-01T20:26:30.000Z,41.297
2019-06-01T20:36:28.000Z,41.228
2019-06-01T20:46:27.000Z,41.331
2019-06-01T20:56:27.000Z,41.523
2019-06-01T21:06:27.000Z,42.157
2019-06-01T21:16:27.000Z,42.002
2019-06-01T21:26:29.000Z,42.053
2019-06-01T21:36:28.000Z,42.095
2019-06-01T21:46:27.000Z,42.28
2019-06-01T21:56:27.000Z,42.43
2019-06-01T22:16:28.000Z,42.757
2019-06-01T22:26:28.000Z,43.05
2019-06-01T22:36:28.000Z,43.007
2019-06-01T22:46:32.000Z,43.026
2019-06-01T22:56:28.000Z,43.016
2019-06-01T23:06:28.000Z,43.245
2019-06-01T23:16:28.000Z,43.416
2019-06-01T23:26:28.000Z,43.567
2019-06-01T23:36:28.000Z,43.484
2019-06-01T23:46:28.000Z,43.593
2019-06-01T23:56:28.000Z,43.645
